Time;durP1;ratioP1;P1;durP2;ratioP2;P2;SDS_P1;SDS_P2;PMS_P1;PMS_P2;Temp;Humidity;BMP_temperature;BMP_pressure;BME280_temperature;BME280_humidity;BME280_pressure;Samples;Min_cycle;Max_cycle;Signal;HPM_P1;HPM_P2
2021/11/18 00:01:21;;;;;;;17.35;6.00;;;;;;;11.27;48.02;101296.97;4995706;28;20081;-67
2021/11/18 00:03:48;;;;;;;12.10;6.80;;;;;;;12.19;47.48;101401.38;4987943;28;20050;-65
2021/11/18 00:06:15;;;;;;;10.75;5.40;;;;;;;11.87;46.58;101308.09;4994000;28;20057;-66
2021/11/18 00:08:42;;;;;;;13.00;6.50;;;;;;;11.87;46.79;101337.97;4993054;28;20049;-65
2021/11/18 00:11:09;;;;;;;11.88;6.10;;;;;;;12.33;46.60;101404.13;4997481;28;20041;-65
2021/11/18 00:13:41;;;;;;;10.13;5.95;;;;;;;11.95;46.27;101312.59;4994807;28;20053;-65
2021/11/18 00:16:06;;;;;;;9.80;6.45;;;;;;;11.97;46.12;101304.72;4994052;28;20045;-66
2021/11/18 00:18:34;;;;;;;11.63;5.38;;;;;;;11.88;46.68;101347.59;4995558;28;20062;-64
2021/11/18 00:21:04;;;;;;;11.82;6.45;;;;;;;11.39;48.16;101373.31;4997219;28;20050;-66
2021/11/18 00:23:34;;;;;;;11.75;5.63;;;;;;;10.86;49.23;101368.22;4993683;28;20129;-65
2021/11/18 00:26:00;;;;;;;10.27;5.88;;;;;;;10.70;49.42;101354.00;4993407;28;20030;-66
2021/11/18 00:28:25;;;;;;;12.57;6.00;;;;;;;10.96;49.66;101367.53;4994814;28;20108;-67
2021/11/18 00:30:52;;;;;;;9.77;5.55;;;;;;;10.82;50.03;101332.31;4994495;28;20041;-66
2021/11/18 00:33:18;;;;;;;10.13;6.05;;;;;;;11.30;49.56;101395.09;4993895;28;20033;-65
2021/11/18 00:35:45;;;;;;;7.65;5.05;;;;;;;10.45;50.17;101343.13;5007214;28;20478;-67
2021/11/18 00:38:10;;;;;;;9.38;6.72;;;;;;;11.01;49.63;101359.69;4994772;28;20816;-65
2021/11/18 00:40:39;;;;;;;7.28;4.85;;;;;;;9.94;50.21;101284.59;4997477;28;20061;-65
2021/11/18 00:43:08;;;;;;;8.18;4.90;;;;;;;10.23;50.22;101307.81;4993124;28;20084;-67
2021/11/18 00:45:33;;;;;;;12.80;5.90;;;;;;;10.11;51.15;101389.78;4992424;28;20137;-66
2021/11/18 00:47:59;;;;;;;9.02;5.57;;;;;;;10.81;49.37;101348.91;4995751;28;20613;-65
2021/11/18 00:50:28;;;;;;;11.32;6.35;;;;;;;11.52;48.78;101384.84;4994477;28;20041;-65
2021/11/18 00:52:54;;;;;;;10.95;5.82;;;;;;;11.50;48.23;101363.81;4992548;28;20061;-66
2021/11/18 00:55:21;;;;;;;8.32;5.55;;;;;;;11.33;48.93;101355.75;4995119;28;20046;-66
2021/11/18 00:57:47;;;;;;;9.27;4.93;;;;;;;11.32;47.21;101247.97;4994376;28;20050;-66
2021/11/18 01:00:19;;;;;;;7.43;5.30;;;;;;;12.19;46.80;101361.03;4996307;28;20536;-66
2021/11/18 01:02:46;;;;;;;7.82;4.45;;;;;;;12.43;46.25;101373.50;4996652;28;20137;-66
2021/11/18 01:05:15;;;;;;;11.05;5.07;;;;;;;12.34;46.42;101355.91;4999536;28;20053;-66
2021/11/18 01:07:48;;;;;;;8.32;4.82;;;;;;;12.06;45.88;101296.91;5013133;28;20120;-66
2021/11/18 01:10:15;;;;;;;9.13;5.68;;;;;;;12.18;45.97;101340.84;5013652;28;20053;-66
2021/11/18 01:12:41;;;;;;;9.23;5.38;;;;;;;12.09;46.45;101348.66;5011962;28;20062;-66
2021/11/18 01:15:10;;;;;;;7.60;4.60;;;;;;;11.90;47.09;101359.00;5014187;28;20088;-66
2021/11/18 01:17:36;;;;;;;10.65;5.50;;;;;;;11.68;47.41;101334.19;5010924;28;20053;-66
2021/11/18 01:20:04;;;;;;;9.43;5.78;;;;;;;11.73;48.00;101357.91;5013866;28;20471;-65
2021/11/18 01:22:31;;;;;;;7.82;4.63;;;;;;;11.04;48.25;101257.31;5015173;28;20068;-66
2021/11/18 01:24:57;;;;;;;9.38;4.80;;;;;;;11.60;48.17;101328.00;5010840;28;20065;-65
2021/11/18 01:27:22;;;;;;;14.70;4.45;;;;;;;11.80;48.21;101362.41;4995661;28;20132;-65
2021/11/18 01:29:48;;;;;;;8.15;5.18;;;;;;;11.44;47.91;101294.53;5011343;28;20402;-65
2021/11/18 01:32:14;;;;;;;7.53;5.20;;;;;;;11.74;47.85;101354.44;5011711;28;20044;-66
2021/11/18 01:34:40;;;;;;;14.48;6.45;;;;;;;11.61;48.03;101341.16;5015200;28;20117;-65
2021/11/18 01:37:07;;;;;;;14.82;5.40;;;;;;;11.76;48.17;101369.34;5012354;28;20046;-66
2021/11/18 01:39:32;;;;;;;8.30;5.07;;;;;;;11.81;48.23;101379.94;5011509;28;20063;-66
2021/11/18 01:42:00;;;;;;;11.40;5.32;;;;;;;10.85;48.05;101230.81;5010898;28;20052;-66
2021/11/18 01:44:37;;;;;;;8.05;5.53;;;;;;;10.91;48.27;101245.75;5011739;28;20041;-66
2021/11/18 01:47:03;;;;;;;8.15;5.35;;;;;;;10.89;48.39;101276.41;5013390;28;20029;-66
2021/11/18 01:49:29;;;;;;;8.82;5.60;;;;;;;11.62;48.54;101373.59;5010458;28;20191;-66
2021/11/18 01:51:59;;;;;;;11.07;6.78;;;;;;;10.98;48.79;101308.03;5011953;28;20099;-67
2021/11/18 01:54:28;;;;;;;17.73;7.63;;;;;;;11.30;48.50;101315.41;4993764;28;20133;-66
2021/11/18 01:56:55;;;;;;;13.15;6.32;;;;;;;11.75;48.36;101367.59;5012895;28;20500;-66
2021/11/18 01:59:32;;;;;;;11.73;6.38;;;;;;;11.78;48.42;101367.63;5014072;28;20080;-66
2021/11/18 02:01:59;;;;;;;13.75;7.63;;;;;;;11.33;48.26;101294.41;5013433;28;20049;-66
2021/11/18 02:04:30;;;;;;;11.75;6.03;;;;;;;11.38;48.46;101319.00;5012892;28;20511;-66
2021/11/18 02:07:05;;;;;;;11.20;6.68;;;;;;;10.94;49.58;101338.59;4991922;28;20173;-66
2021/11/18 02:09:40;;;;;;;11.52;6.82;;;;;;;10.49;49.97;101281.13;4991344;28;20057;-66
2021/11/18 02:12:12;;;;;;;13.52;8.95;;;;;;;11.06;50.25;101358.00;4994245;28;20056;-65
2021/11/18 02:14:38;;;;;;;13.70;9.18;;;;;;;10.90;50.03;101367.41;4992952;28;20085;-66
2021/11/18 02:17:08;;;;;;;16.08;9.70;;;;;;;9.88;49.66;101200.63;4988412;28;20034;-65
2021/11/18 02:19:40;;;;;;;15.23;10.43;;;;;;;11.16;49.57;101366.00;4992496;28;20049;-66
2021/11/18 02:22:06;;;;;;;19.13;10.55;;;;;;;10.69;49.84;101324.25;4991219;28;20050;-66
2021/11/18 02:24:48;;;;;;;19.08;10.77;;;;;;;11.28;49.06;101361.78;4994611;28;20060;-66
2021/11/18 02:27:17;;;;;;;11.32;8.50;;;;;;;10.02;49.84;101211.31;4992472;28;20108;-65
2021/11/18 02:29:45;;;;;;;15.82;11.32;;;;;;;10.72;49.92;101307.66;5012470;28;20501;-66
2021/11/18 02:32:14;;;;;;;23.08;10.23;;;;;;;10.67;49.59;101269.97;4994339;28;20976;-66
2021/11/18 02:34:49;;;;;;;14.48;8.80;;;;;;;11.18;48.84;101334.53;4991614;28;20038;-66
2021/11/18 02:37:15;;;;;;;12.10;7.63;;;;;;;10.77;49.06;101301.63;4992341;28;20190;-67
2021/11/18 02:39:41;;;;;;;16.98;10.50;;;;;;;10.23;49.84;101278.94;4994707;28;20042;-67
2021/11/18 02:42:09;;;;;;;12.80;9.35;;;;;;;10.98;49.65;101353.53;4993276;28;20393;-67
2021/11/18 02:44:35;;;;;;;11.93;8.52;;;;;;;10.67;49.18;101281.34;4994515;28;20050;-66
2021/11/18 02:47:04;;;;;;;12.68;7.50;;;;;;;10.76;49.76;101314.72;4995495;28;20033;-68
2021/11/18 02:49:29;;;;;;;11.52;6.20;;;;;;;10.90;49.54;101325.41;4994350;28;20756;-66
2021/11/18 02:51:55;;;;;;;12.50;6.22;;;;;;;11.15;49.81;101363.38;4992738;28;20049;-66
2021/11/18 02:54:21;;;;;;;11.38;7.00;;;;;;;11.09;49.63;101358.03;4975070;28;20034;-66
2021/11/18 02:56:47;;;;;;;13.32;6.55;;;;;;;11.16;49.36;101346.75;4990492;28;20055;-66
2021/11/18 02:59:13;;;;;;;18.30;6.28;;;;;;;10.71;49.69;101306.78;4992543;28;20041;-68
2021/11/18 03:01:43;;;;;;;13.10;6.85;;;;;;;10.64;50.63;101352.16;4995426;28;20074;-68
2021/11/18 03:04:09;;;;;;;7.65;5.32;;;;;;;10.37;50.51;101257.28;5007283;28;20050;-67
2021/11/18 03:06:35;;;;;;;11.43;6.50;;;;;;;10.46;50.55;101273.16;4992009;28;20037;-67
2021/11/18 03:09:00;;;;;;;7.35;5.18;;;;;;;10.85;50.23;101322.72;4993193;28;20053;-67
2021/11/18 03:11:27;;;;;;;14.25;6.18;;;;;;;11.07;50.21;101363.25;4993048;28;20866;-67
2021/11/18 03:13:54;;;;;;;9.85;6.70;;;;;;;10.60;50.17;101289.13;4994080;28;20041;-67
2021/11/18 03:16:20;;;;;;;10.95;6.50;;;;;;;10.99;50.21;101349.16;4974738;28;20425;-68
2021/11/18 03:18:46;;;;;;;9.82;6.05;;;;;;;10.40;50.52;101313.34;4975739;28;20133;-66
2021/11/18 03:21:18;;;;;;;17.52;6.93;;;;;;;9.26;51.87;101214.41;4990173;28;20044;-66
2021/11/18 03:23:44;;;;;;;16.17;6.78;;;;;;;10.50;51.72;101358.97;4992593;28;20050;-66
2021/11/18 03:26:15;;;;;;;11.02;6.70;;;;;;;10.15;51.38;101286.66;4990039;28;20042;-66
2021/11/18 03:28:41;;;;;;;17.95;6.72;;;;;;;10.14;51.45;101261.31;4992162;28;20040;-65
2021/11/18 03:31:09;;;;;;;13.30;7.18;;;;;;;10.91;51.06;101359.56;4992755;28;20153;-66
2021/11/18 03:33:45;;;;;;;13.32;7.00;;;;;;;10.37;51.64;101265.16;4991287;28;20544;-68
2021/11/18 03:36:13;;;;;;;12.55;7.72;;;;;;;10.99;50.46;101357.91;4993733;28;20042;-66
2021/11/18 03:38:40;;;;;;;9.23;6.30;;;;;;;10.80;50.47;101311.28;4991733;28;20061;-66
2021/11/18 03:41:07;;;;;;;10.52;6.00;;;;;;;10.69;50.54;101337.38;4993533;28;20185;-66
2021/11/18 03:43:36;;;;;;;11.50;7.22;;;;;;;10.83;50.67;101334.94;4974365;28;20246;-66
2021/11/18 03:46:03;;;;;;;11.48;6.53;;;;;;;10.70;50.88;101298.88;4992448;28;20058;-67
2021/11/18 03:48:30;;;;;;;15.35;6.15;;;;;;;10.69;50.89;101305.88;4993072;28;20054;-67
2021/11/18 03:50:56;;;;;;;17.58;7.72;;;;;;;10.33;51.17;101295.75;4991965;28;20109;-66
2021/11/18 03:53:23;;;;;;;15.43;6.80;;;;;;;10.53;51.36;101324.88;4991574;28;20045;-68
2021/11/18 03:55:49;;;;;;;21.85;7.20;;;;;;;10.96;51.64;101357.88;4992956;28;20038;-66
2021/11/18 03:58:14;;;;;;;10.85;7.18;;;;;;;10.30;51.69;101314.94;4991313;28;20069;-67
2021/11/18 04:00:41;;;;;;;17.85;7.93;;;;;;;10.78;51.47;101345.38;4991573;28;20141;-66
2021/11/18 04:03:09;;;;;;;14.43;7.03;;;;;;;10.57;52.00;101360.81;4974200;28;20494;-66
2021/11/18 04:05:38;;;;;;;9.60;5.60;;;;;;;10.65;51.46;101317.22;5000078;28;20069;-67
2021/11/18 04:08:06;;;;;;;10.43;5.60;;;;;;;10.94;50.70;101343.84;5013480;28;20034;-66
2021/11/18 04:10:33;;;;;;;10.48;5.57;;;;;;;10.56;51.07;101257.59;5009792;28;20528;-65
2021/11/18 04:13:00;;;;;;;12.13;5.85;;;;;;;11.23;50.69;101374.00;5012366;28;20053;-65
2021/11/18 04:15:26;;;;;;;11.73;7.07;;;;;;;11.08;51.04;101345.78;5010939;28;20061;-67
2021/11/18 04:17:52;;;;;;;12.13;6.13;;;;;;;10.43;51.30;101239.91;4992992;28;20061;-66
2021/11/18 04:20:19;;;;;;;12.25;6.13;;;;;;;10.72;50.83;101289.28;5010242;28;20046;-66
2021/11/18 04:22:46;;;;;;;10.77;6.22;;;;;;;10.39;51.08;101248.59;5013020;28;20113;-67
2021/11/18 04:25:15;;;;;;;11.63;6.90;;;;;;;11.25;50.86;101378.41;4994438;28;20484;-66
2021/11/18 04:27:41;;;;;;;11.13;5.70;;;;;;;10.82;51.32;101343.69;5014411;28;20041;-66
2021/11/18 04:30:10;;;;;;;20.13;7.55;;;;;;;10.74;52.35;101377.69;4998933;28;20061;-66
2021/11/18 04:32:36;;;;;;;8.48;6.63;;;;;;;10.12;51.90;101241.19;5013820;28;20180;-66
2021/11/18 04:35:04;;;;;;;11.55;7.53;;;;;;;10.60;52.54;101359.97;5011792;28;20489;-66
2021/11/18 04:37:30;;;;;;;13.75;8.43;;;;;;;10.35;53.09;101347.38;5012687;28;21475;-66
2021/11/18 04:39:55;;;;;;;9.98;6.72;;;;;;;10.64;53.14;101386.28;5016108;28;20045;-66
2021/11/18 04:42:21;;;;;;;22.63;8.80;;;;;;;10.60;52.96;101386.22;5015731;28;20095;-66
2021/11/18 04:44:47;;;;;;;12.88;7.90;;;;;;;10.66;52.53;101355.72;5012202;28;20045;-66
2021/11/18 04:47:13;;;;;;;10.68;7.18;;;;;;;10.97;51.75;101366.63;5013889;28;20073;-66
2021/11/18 04:49:42;;;;;;;10.00;7.38;;;;;;;10.86;51.50;101349.84;5013070;28;20041;-66
2021/11/18 04:52:08;;;;;;;16.40;8.18;;;;;;;11.14;50.93;101361.59;5012840;28;20041;-66
2021/11/18 04:54:35;;;;;;;17.45;8.23;;;;;;;10.75;51.30;101336.59;4996724;28;20227;-66
2021/11/18 04:57:02;;;;;;;14.27;8.25;;;;;;;11.30;50.49;101392.47;5012667;28;20054;-66
2021/11/18 04:59:27;;;;;;;14.57;7.80;;;;;;;10.87;50.44;101310.50;5014972;28;20038;-66
2021/11/18 05:01:53;;;;;;;15.75;8.63;;;;;;;10.76;50.76;101320.84;5000820;28;20056;-66
2021/11/18 05:04:19;;;;;;;17.95;8.32;;;;;;;10.54;50.70;101282.94;5014649;28;20073;-66
2021/11/18 05:06:45;;;;;;;20.33;7.63;;;;;;;10.36;51.36;101329.88;5012439;28;20120;-66
2021/11/18 05:09:11;;;;;;;16.95;9.77;;;;;;;10.90;51.45;101397.19;5012672;28;20473;-66
2021/11/18 05:11:38;;;;;;;17.70;7.53;;;;;;;10.92;51.10;101371.81;5014448;28;20111;-66
2021/11/18 05:14:03;;;;;;;14.63;7.53;;;;;;;10.84;50.75;101338.44;5010595;28;20041;-66
2021/11/18 05:19:05;;;;;;;11.82;7.47;;;;;;;11.04;50.13;101365.00;5043879;27;20621;-67
2021/11/18 05:21:32;;;;;;;13.05;8.63;;;;;;;11.13;50.11;101357.22;5050813;28;20049;-67
2021/11/18 05:24:00;;;;;;;9.25;7.13;;;;;;;11.14;50.60;101357.25;5037710;28;20033;-67
2021/11/18 05:26:27;;;;;;;8.52;6.82;;;;;;;11.34;49.99;101411.78;5029458;28;20033;-68
2021/11/18 05:28:53;;;;;;;16.35;7.10;;;;;;;10.72;49.89;101310.28;5019483;28;20071;-67
2021/11/18 05:31:22;;;;;;;16.88;7.75;;;;;;;11.36;50.21;101428.47;5017228;28;20128;-66
2021/11/18 05:33:49;;;;;;;12.05;7.35;;;;;;;10.76;50.31;101335.72;5014431;28;20053;-67
2021/11/18 05:36:17;;;;;;;10.65;7.80;;;;;;;10.79;49.60;101314.75;5017880;28;20055;-66
2021/11/18 05:38:43;;;;;;;21.55;8.93;;;;;;;10.72;49.45;101286.66;5019963;28;20115;-67
2021/11/18 05:41:10;;;;;;;24.63;9.60;;;;;;;11.67;49.15;101424.47;5051795;28;20885;-67
2021/11/18 05:43:40;;;;;;;21.48;9.93;;;;;;;10.75;49.39;101300.72;5038465;28;20048;-66
2021/11/18 05:46:06;;;;;;;13.18;8.77;;;;;;;10.95;49.00;101321.97;5036043;28;20126;-67
2021/11/18 05:48:32;;;;;;;17.55;8.30;;;;;;;11.26;48.72;101371.38;5035697;28;20048;-67
2021/11/18 05:51:00;;;;;;;12.18;6.70;;;;;;;11.13;48.68;101339.72;5032741;28;20052;-66
2021/11/18 05:53:29;;;;;;;10.77;8.27;;;;;;;11.00;49.00;101345.66;5038240;28;20045;-66
2021/11/18 05:55:56;;;;;;;13.90;8.15;;;;;;;10.28;49.97;101311.41;5035230;28;20037;-67
2021/11/18 05:58:22;;;;;;;11.98;7.53;;;;;;;11.05;49.89;101401.78;5037900;28;21314;-66
2021/11/18 06:00:48;;;;;;;20.48;9.77;;;;;;;10.88;49.39;101329.75;5033356;28;20041;-66
2021/11/18 06:03:14;;;;;;;10.77;7.32;;;;;;;11.48;48.82;101391.81;5033765;28;20873;-66
2021/11/18 06:05:39;;;;;;;14.05;8.70;;;;;;;11.85;48.69;101423.81;5035471;28;20049;-66
2021/11/18 06:08:06;;;;;;;15.35;9.63;;;;;;;12.00;48.37;101431.00;5032356;28;20398;-66
2021/11/18 06:10:32;;;;;;;14.82;9.95;;;;;;;11.08;48.73;101358.91;5031108;28;20511;-66
2021/11/18 06:13:00;;;;;;;16.05;11.70;;;;;;;10.62;49.83;101332.88;5016721;28;20520;-66
2021/11/18 06:15:27;;;;;;;11.30;8.10;;;;;;;10.88;50.77;101408.53;5013307;28;20492;-66
2021/11/18 06:17:52;;;;;;;17.50;9.73;;;;;;;11.67;49.06;101439.38;5012881;28;20104;-66
2021/11/18 06:20:18;;;;;;;23.02;8.48;;;;;;;11.71;48.57;101386.84;5011184;28;20038;-65
2021/11/18 06:23:12;;;;;;;23.77;8.73;;;;;;;11.87;48.20;101390.56;5061103;27;20554;-68
2021/11/18 06:25:38;;;;;;;18.27;8.45;;;;;;;12.26;47.87;101436.53;5008609;28;20513;-65
2021/11/18 06:28:05;;;;;;;16.65;8.55;;;;;;;12.00;47.51;101357.34;5005027;28;20072;-67
2021/11/18 06:30:38;;;;;;;14.60;8.02;;;;;;;12.13;47.04;101390.81;5007338;28;20146;-66
2021/11/18 06:33:04;;;;;;;18.50;9.90;;;;;;;12.25;47.03;101366.34;5006326;28;20049;-67
2021/11/18 06:35:30;;;;;;;31.02;9.55;;;;;;;11.99;46.58;101313.50;5005128;28;20040;-66
2021/11/18 06:37:57;;;;;;;18.42;9.30;;;;;;;12.78;46.67;101415.91;5007519;28;20041;-66
2021/11/18 06:40:23;;;;;;;24.67;9.50;;;;;;;12.48;47.17;101406.03;5007941;28;20054;-66
2021/11/18 06:42:49;;;;;;;14.73;10.93;;;;;;;12.61;47.15;101399.97;5004300;28;20521;-68
2021/11/18 06:45:19;;;;;;;16.40;8.80;;;;;;;12.56;46.30;101350.78;5003348;28;20248;-64
2021/11/18 06:47:44;;;;;;;15.02;9.13;;;;;;;12.45;46.41;101337.53;5004492;28;20038;-64
2021/11/18 06:50:10;;;;;;;29.67;10.43;;;;;;;12.65;46.76;101377.19;5004838;28;20072;-64
2021/11/18 06:52:36;;;;;;;12.32;9.43;;;;;;;13.09;45.81;101410.84;5009960;28;20096;-65
2021/11/18 06:55:05;;;;;;;23.02;8.57;;;;;;;12.43;46.32;101349.81;5008674;28;20037;-65
2021/11/18 06:57:30;;;;;;;22.35;11.00;;;;;;;13.02;46.38;101446.81;5004768;28;20136;-64
2021/11/18 06:59:57;;;;;;;12.40;9.50;;;;;;;12.30;46.44;101322.53;5005721;28;20467;-65
2021/11/18 07:02:24;;;;;;;11.05;7.55;;;;;;;12.39;45.87;101321.72;5004924;28;20052;-65
2021/11/18 07:04:50;;;;;;;20.15;8.07;;;;;;;12.81;45.89;101397.50;5004216;28;20169;-65
2021/11/18 07:07:16;;;;;;;16.90;8.07;;;;;;;12.21;45.88;101294.38;5003561;28;20079;-63
2021/11/18 07:09:42;;;;;;;15.93;8.88;;;;;;;13.16;44.81;101390.66;5005409;28;20459;-65
2021/11/18 07:12:11;;;;;;;11.85;8.73;;;;;;;13.10;44.64;101330.91;5007821;28;20050;-65
2021/11/18 07:14:40;;;;;;;12.80;8.88;;;;;;;12.96;44.40;101315.03;5000841;28;20077;-64
2021/11/18 07:17:05;;;;;;;11.57;8.13;;;;;;;12.81;44.51;101313.22;5000676;28;20044;-67
2021/11/18 07:19:32;;;;;;;15.30;8.65;;;;;;;12.80;45.37;101363.22;5002464;28;20423;-66
2021/11/18 07:21:59;;;;;;;14.63;7.80;;;;;;;12.61;45.15;101307.81;5014298;28;20513;-66
2021/11/18 07:24:25;;;;;;;16.70;7.10;;;;;;;12.74;45.27;101356.19;5024369;28;20565;-65
2021/11/18 07:26:51;;;;;;;9.88;6.82;;;;;;;12.36;45.13;101341.00;5023968;28;20034;-66
2021/11/18 07:29:17;;;;;;;13.55;7.18;;;;;;;13.65;44.44;101444.53;5026804;28;20029;-65
2021/11/18 07:31:44;;;;;;;27.42;9.02;;;;;;;12.96;44.76;101382.66;5020398;28;20032;-64
2021/11/18 07:34:10;;;;;;;13.15;7.00;;;;;;;13.56;44.30;101385.59;5006515;28;20049;-64
2021/11/18 07:36:36;;;;;;;11.95;7.55;;;;;;;13.44;44.06;101349.53;5010519;28;20037;-64
2021/11/18 07:39:02;;;;;;;14.00;8.30;;;;;;;13.98;43.96;101426.16;5009709;28;20041;-65
2021/11/18 07:41:29;;;;;;;11.23;7.68;;;;;;;13.43;43.63;101342.47;5011462;28;20043;-64
2021/11/18 07:43:55;;;;;;;11.82;8.25;;;;;;;13.80;43.37;101384.78;5010413;28;20025;-66
2021/11/18 07:46:20;;;;;;;14.30;8.73;;;;;;;13.43;44.78;101437.41;5006339;28;20594;-65
2021/11/18 07:48:48;;;;;;;23.83;8.57;;;;;;;13.36;45.29;101428.56;5006066;28;20132;-64
2021/11/18 07:51:16;;;;;;;22.27;10.48;;;;;;;13.03;45.32;101382.69;5012721;28;20038;-65
2021/11/18 07:53:42;;;;;;;21.88;9.73;;;;;;;13.67;44.76;101411.13;5009153;28;20495;-65
2021/11/18 07:56:08;;;;;;;15.63;8.90;;;;;;;13.42;45.13;101425.97;5008989;28;20041;-65
2021/11/18 07:58:34;;;;;;;9.00;5.07;;;;;;;12.94;45.23;101410.72;5011482;28;20051;-66
2021/11/18 08:00:59;;;;;;;15.20;8.10;;;;;;;13.12;45.03;101329.16;5009160;28;20049;-65
2021/11/18 08:03:28;;;;;;;15.23;8.55;;;;;;;13.05;44.93;101322.09;5010579;28;20099;-65
2021/11/18 08:05:54;;;;;;;16.67;8.93;;;;;;;13.32;44.57;101350.34;5010783;28;20485;-64
2021/11/18 08:08:20;;;;;;;17.00;9.25;;;;;;;13.44;44.24;101350.41;5009240;28;20106;-64
2021/11/18 08:10:45;;;;;;;25.08;9.10;;;;;;;13.73;44.24;101395.31;5011273;28;20064;-65
2021/11/18 08:13:11;;;;;;;11.40;7.68;;;;;;;13.71;43.91;101373.31;5009067;28;20048;-65
2021/11/18 08:15:36;;;;;;;14.88;8.60;;;;;;;13.08;45.03;101366.91;5013778;28;20060;-65
2021/11/18 08:18:02;;;;;;;11.63;7.55;;;;;;;13.00;46.32;101460.84;5008995;28;20065;-65
2021/11/18 08:20:28;;;;;;;13.70;9.20;;;;;;;13.30;45.72;101454.91;5012537;28;20037;-65
2021/11/18 08:22:54;;;;;;;11.02;8.13;;;;;;;13.34;45.04;101384.63;5009829;28;20045;-65
2021/11/18 08:25:22;;;;;;;14.15;9.13;;;;;;;13.92;44.55;101430.53;5009864;28;20111;-65
2021/11/18 08:27:48;;;;;;;17.52;9.93;;;;;;;13.52;44.87;101385.56;5011331;28;20115;-65
2021/11/18 08:30:21;;;;;;;17.23;9.85;;;;;;;13.59;45.35;101431.31;5007949;28;20958;-65
2021/11/18 08:32:48;;;;;;;;;;;;;;;12.62;46.56;101332.41;5013278;28;20037;-65
2021/11/18 08:35:16;;;;;;;11.65;8.20;;;;;;;13.46;44.85;101346.03;5013002;28;19920;-65
2021/11/18 08:37:42;;;;;;;17.20;9.57;;;;;;;13.62;44.10;101382.97;5011350;28;20045;-65
2021/11/18 08:40:08;;;;;;;12.05;8.65;;;;;;;13.55;44.09;101342.50;5014123;28;20041;-65
2021/11/18 08:42:34;;;;;;;19.35;10.80;;;;;;;13.32;45.15;101432.06;5010092;28;20041;-65
2021/11/18 08:45:00;;;;;;;21.80;10.52;;;;;;;13.54;44.91;101438.31;5011041;28;20042;-64
2021/11/18 08:47:26;;;;;;;16.17;9.65;;;;;;;13.44;44.60;101402.25;5012021;28;20036;-67
2021/11/18 08:49:51;;;;;;;13.57;10.85;;;;;;;12.97;44.84;101355.41;5012537;28;20409;-64
2021/11/18 08:52:23;;;;;;;16.35;9.93;;;;;;;13.49;44.77;101406.66;5015492;28;20793;-65
2021/11/18 08:54:52;;;;;;;13.98;11.07;;;;;;;13.68;44.45;101388.28;5008711;28;20547;-65
2021/11/18 08:57:19;;;;;;;13.43;10.48;;;;;;;13.62;44.96;101420.75;5009444;28;20049;-65
2021/11/18 08:59:45;;;;;;;13.93;9.43;;;;;;;13.34;44.65;101384.63;5013481;28;20407;-65
2021/11/18 09:02:15;;;;;;;14.27;10.15;;;;;;;14.17;44.08;101458.75;5026127;28;20124;-65
2021/11/18 09:04:41;;;;;;;18.20;9.65;;;;;;;14.08;43.43;101383.94;5030983;28;20036;-66
2021/11/18 09:07:06;;;;;;;25.90;12.52;;;;;;;14.02;43.13;101368.09;5027441;28;20098;-66
2021/11/18 09:09:32;;;;;;;17.98;12.52;;;;;;;13.51;44.11;101396.13;5031611;28;20041;-65
2021/11/18 09:11:59;;;;;;;13.88;10.60;;;;;;;14.13;43.54;101456.09;5023382;28;20054;-65
2021/11/18 09:14:27;;;;;;;12.75;9.48;;;;;;;13.66;42.82;101346.06;5012829;28;20028;-65
2021/11/18 09:16:54;;;;;;;15.60;11.55;;;;;;;14.28;43.17;101369.88;5012704;28;20037;-65
2021/11/18 09:19:29;;;;;;;14.80;10.80;;;;;;;13.81;43.92;101410.28;5013263;28;20041;-65
2021/11/18 09:21:56;;;;;;;18.08;12.00;;;;;;;14.26;42.99;101409.50;5012939;28;20085;-65
2021/11/18 09:24:31;;;;;;;14.35;11.02;;;;;;;14.38;43.03;101437.66;5010669;28;20746;-65
2021/11/18 09:27:01;;;;;;;15.45;11.93;;;;;;;14.18;42.65;101383.97;5009490;28;20115;-65
2021/11/18 09:29:28;;;;;;;14.75;10.20;;;;;;;14.73;42.95;101452.69;5013470;28;20066;-65
2021/11/18 09:31:56;;;;;;;16.70;10.23;;;;;;;15.08;42.49;101452.63;5009204;28;20049;-65
2021/11/18 09:34:23;;;;;;;25.73;11.73;;;;;;;14.10;42.79;101347.00;5025783;28;20096;-65
2021/11/18 09:36:48;;;;;;;18.15;10.68;;;;;;;14.65;42.86;101402.47;5006625;28;20782;-65
2021/11/18 09:39:15;;;;;;;19.40;10.88;;;;;;;14.60;42.44;101379.59;5024777;28;20751;-65
2021/11/18 09:42:03;;;;;;;21.15;11.70;;;;;;;14.67;43.16;101442.97;5007295;28;20103;-66
2021/11/18 09:44:31;;;;;;;20.88;12.32;;;;;;;14.06;43.71;101369.00;5008324;28;20038;-65
2021/11/18 09:47:06;;;;;;;27.50;13.75;;;;;;;15.02;43.16;101447.34;5011610;28;20025;-65
2021/11/18 09:49:44;;;;;;;18.67;11.57;;;;;;;14.81;42.75;101416.56;5008947;28;20081;-66
2021/11/18 09:52:45;;;;;;;19.75;11.90;;;;;;;14.72;42.67;101355.78;5006693;28;20056;-66
2021/11/18 09:55:18;;;;;;;20.23;12.65;;;;;;;15.17;43.12;101433.22;4956227;28;20635;-66
2021/11/18 09:57:56;;;;;;;19.70;13.43;;;;;;;15.59;42.13;101437.50;4996385;28;20086;-66
2021/11/18 10:01:03;;;;;;;27.00;14.18;;;;;;;15.59;41.58;101354.59;5008314;28;20542;-66
2021/11/18 10:03:56;;;;;;;17.35;13.02;;;;;;;15.02;42.62;101346.03;5011879;28;20065;-65
2021/11/18 10:06:35;;;;;;;20.65;12.73;;;;;;;15.78;41.70;101393.34;5007020;28;20138;-65
2021/11/18 10:09:18;;;;;;;15.30;11.07;;;;;;;15.43;41.90;101358.19;5007558;28;20049;-66
2021/11/18 10:11:58;;;;;;;16.63;10.88;;;;;;;15.40;41.35;101299.16;5012162;28;20129;-66
2021/11/18 10:14:24;;;;;;;19.02;11.25;;;;;;;15.45;41.17;101309.69;5007436;28;20038;-66
2021/11/18 10:17:14;;;;;;;15.50;10.05;;;;;;;15.83;41.93;101388.03;5009846;28;20041;-66
2021/11/18 10:19:43;;;;;;;18.45;10.30;;;;;;;16.01;40.77;101334.06;5025174;28;20142;-65
2021/11/18 10:22:12;;;;;;;13.38;10.07;;;;;;;15.54;41.40;101351.97;5025021;28;20106;-65
2021/11/18 10:24:41;;;;;;;22.65;10.57;;;;;;;15.28;41.16;101315.06;5025453;28;20057;-65
2021/11/18 10:27:38;;;;;;;14.15;8.80;;;;;;;15.83;41.32;101396.84;5023498;28;20556;-65
2021/11/18 10:30:21;;;;;;;13.10;9.07;;;;;;;15.67;40.94;101336.91;5026673;28;20056;-66
2021/11/18 10:35:11;;;;;;;12.30;8.10;;;;;;;15.36;40.59;101315.94;5091720;27;21201;-66
2021/11/18 10:38:12;;;;;;;17.52;9.38;;;;;;;15.06;41.71;101338.09;5072856;28;20048;-65
2021/11/18 10:40:50;;;;;;;18.52;9.15;;;;;;;16.24;40.81;101393.00;5074660;28;20055;-65
2021/11/18 10:43:17;;;;;;;16.10;10.85;;;;;;;16.51;40.32;101393.69;5072754;27;20102;-65
2021/11/18 10:45:58;;;;;;;21.98;8.30;;;;;;;16.82;39.84;101391.66;5072532;27;20048;-65
2021/11/18 10:48:33;;;;;;;25.13;10.00;;;;;;;16.51;39.39;101293.00;5073331;28;20031;-65
2021/11/18 10:51:04;;;;;;;13.15;9.23;;;;;;;17.28;38.40;101359.31;5073227;28;20592;-65
2021/11/18 10:53:44;;;;;;;18.77;9.23;;;;;;;16.96;39.36;101364.13;5066365;28;20079;-65
2021/11/18 10:56:16;;;;;;;16.02;8.10;;;;;;;16.91;39.00;101315.59;5055163;28;20024;-65
2021/11/18 10:58:48;;;;;;;13.30;9.50;;;;;;;16.99;39.05;101380.00;5052546;28;20139;-65
2021/11/18 11:01:27;;;;;;;10.55;7.65;;;;;;;17.03;39.21;101382.59;5069790;28;20526;-65
2021/11/18 11:03:54;;;;;;;10.85;8.48;;;;;;;16.86;38.64;101332.41;5073005;27;20048;-65
2021/11/18 11:06:27;;;;;;;12.90;8.48;;;;;;;16.14;39.45;101364.84;5055757;28;20089;-65
2021/11/18 11:09:08;;;;;;;11.15;7.68;;;;;;;16.51;39.30;101318.63;5057131;28;20040;-65
2021/11/18 11:11:52;;;;;;;9.73;6.55;;;;;;;16.16;38.26;101272.16;5073149;28;20056;-65
2021/11/18 11:14:39;;;;;;;19.02;7.20;;;;;;;16.07;38.50;101259.88;5074980;28;20128;-65
2021/11/18 11:17:16;;;;;;;11.73;6.43;;;;;;;16.63;37.77;101284.94;5070801;28;20032;-65
2021/11/18 11:19:53;;;;;;;7.95;5.82;;;;;;;16.33;38.31;101272.00;5095066;28;20597;-66
2021/11/18 11:22:36;;;;;;;11.43;5.78;;;;;;;16.43;38.39;101289.56;5092346;27;20892;-66
2021/11/18 11:25:25;;;;;;;8.35;5.03;;;;;;;15.06;39.24;101287.00;5090077;27;20044;-66
2021/11/18 11:27:53;;;;;;;10.38;5.05;;;;;;;15.22;39.09;101285.13;5091696;27;20499;-66
2021/11/18 11:30:27;;;;;;;8.60;5.35;;;;;;;15.85;39.26;101345.63;5092334;28;20051;-65